CheckWX is a tool to help pilots better visualize weather data.  It is not intended as a substitute for an official pre-flight weather briefing.

19:38:09 UTC

KSBA TAF
Santa Barbara Municipal Airport
Santa Barbara, California, USA
KSBA 191927Z 1919/2018 20005KT P6SM OVC005 FM192200 26010KT P6SM SCT005 BKN015 FM200400 VRB03KT P6SM OVC017 FM201000 VRB03KT 3SM BR OVC007 FM201600 16005KT 4SM BR OVC009

Jun-19@
19:00 UTC

Jun-19 @ 19:00 UTC

Jun-19@
22:00 UTC

Jun-19 @ 22:00 UTC

KSBA 191927Z 1919/2018 20005KT P6SM OVC005
Wind
  • 200° at 5 KTS
Cloud Levels
  • Overcast at 500' AGL

Jun-19@
22:00 UTC

Jun-19 @ 22:00 UTC

Jun-20@
04:00 UTC

Jun-20 @ 04:00 UTC

FM192200 26010KT P6SM SCT005 BKN015

From

From Standard forecast or significant change

Wind
  • 260° at 10 KTS
Cloud Levels
  • Scattered at 500' AGL
  • Broken at 1,500' AGL

Jun-20@
04:00 UTC

Jun-20 @ 04:00 UTC

Jun-20@
10:00 UTC

Jun-20 @ 10:00 UTC

FM200400 VRB03KT P6SM OVC017

From

From Standard forecast or significant change

Wind
  • Variable at 3 KTS
Cloud Levels
  • Overcast at 1,700' AGL

Jun-20@
10:00 UTC

Jun-20 @ 10:00 UTC

Jun-20@
16:00 UTC

Jun-20 @ 16:00 UTC

FM201000 VRB03KT 3SM BR OVC007

From

From Standard forecast or significant change

Wind
  • Variable at 3 KTS
Conditions
Mist
Cloud Levels
  • Overcast at 700' AGL

Jun-20@
16:00 UTC

Jun-20 @ 16:00 UTC

Jun-20@
18:00 UTC

Jun-20 @ 18:00 UTC

FM201600 16005KT 4SM BR OVC009

From

From Standard forecast or significant change

Wind
  • 160° at 5 KTS
Conditions
Mist
Cloud Levels
  • Overcast at 900' AGL